Terminal Aerodrome Forecast
Issued by NWS Shreveport, LA

Home | Current Version | Previous Version | Text Only | Print | Product List | Glossary On
Versions: 1 2 3 4 5 6 7 8 9 10 11 12 13 14 15 16 17 18 19 20 21 22 23 24
656
FTUS44 KSHV 271858 AAC
TAFMLU
TAF AMD
KMLU 271858Z 2719/2818 24007KT P6SM BKN030
      TEMPO 2719/2720 SCT015 BKN050
     FM272000 24007KT P6SM VCTS BKN040CB
      TEMPO 2721/2724 P6SM -TSRA BKN050CB
     FM280000 21005KT P6SM OVC100
      TEMPO 2803/2806 P6SM -RA OVC100
     FM280600 20003KT 5SM -SHRA BKN050 BKN100
     FM280900 21004KT P6SM BKN050 OVC100=

USA.gov is the U.S. government's official web portal to all federal, state and local government web resources and services.